sensor_id;sensor_type;location;lat;lon;timestamp;P1;durP1;ratioP1;P2;durP2;ratioP2
41709;SDS011;59402;48.396;-4.472;2023-04-28T00:01:48;117.07;;;11.07;;
41709;SDS011;59402;48.396;-4.472;2023-04-28T00:04:14;45.08;;;8.27;;
41709;SDS011;59402;48.396;-4.472;2023-04-28T00:06:40;112.28;;;10.52;;
41709;SDS011;59402;48.396;-4.472;2023-04-28T00:09:06;81.60;;;10.70;;
41709;SDS011;59402;48.396;-4.472;2023-04-28T00:11:35;60.05;;;10.20;;
41709;SDS011;59402;48.396;-4.472;2023-04-28T00:14:02;84.63;;;11.40;;
41709;SDS011;59402;48.396;-4.472;2023-04-28T00:16:28;109.47;;;10.85;;
41709;SDS011;59402;48.396;-4.472;2023-04-28T00:18:54;156.20;;;13.20;;
41709;SDS011;59402;48.396;-4.472;2023-04-28T00:21:20;64.55;;;10.27;;
41709;SDS011;59402;48.396;-4.472;2023-04-28T00:23:46;68.55;;;9.65;;
41709;SDS011;59402;48.396;-4.472;2023-04-28T00:26:12;120.95;;;12.50;;
41709;SDS011;59402;48.396;-4.472;2023-04-28T00:28:40;161.52;;;11.90;;
41709;SDS011;59402;48.396;-4.472;2023-04-28T00:31:10;125.57;;;10.85;;
41709;SDS011;59402;48.396;-4.472;2023-04-28T00:33:40;141.55;;;12.13;;
41709;SDS011;59402;48.396;-4.472;2023-04-28T00:36:06;94.88;;;10.02;;
41709;SDS011;59402;48.396;-4.472;2023-04-28T00:38:32;59.25;;;8.32;;
41709;SDS011;59402;48.396;-4.472;2023-04-28T00:40:58;62.05;;;7.88;;
41709;SDS011;59402;48.396;-4.472;2023-04-28T00:43:24;58.55;;;7.53;;
41709;SDS011;59402;48.396;-4.472;2023-04-28T00:45:50;138.57;;;10.05;;
41709;SDS011;59402;48.396;-4.472;2023-04-28T00:48:16;117.45;;;9.60;;
41709;SDS011;59402;48.396;-4.472;2023-04-28T00:50:43;36.85;;;7.05;;
41709;SDS011;59402;48.396;-4.472;2023-04-28T00:53:09;30.38;;;6.57;;
41709;SDS011;59402;48.396;-4.472;2023-04-28T00:55:36;30.25;;;7.95;;
41709;SDS011;59402;48.396;-4.472;2023-04-28T00:58:02;23.80;;;6.18;;
41709;SDS011;59402;48.396;-4.472;2023-04-28T01:00:29;31.70;;;8.27;;
41709;SDS011;59402;48.396;-4.472;2023-04-28T01:02:56;24.95;;;7.25;;
41709;SDS011;59402;48.396;-4.472;2023-04-28T01:05:25;17.57;;;6.27;;
41709;SDS011;59402;48.396;-4.472;2023-04-28T01:07:51;20.25;;;6.22;;
41709;SDS011;59402;48.396;-4.472;2023-04-28T01:10:17;24.97;;;6.93;;
41709;SDS011;59402;48.396;-4.472;2023-04-28T01:12:43;14.25;;;6.72;;
41709;SDS011;59402;48.396;-4.472;2023-04-28T01:15:11;17.35;;;5.72;;
41709;SDS011;59402;48.396;-4.472;2023-04-28T01:17:41;17.02;;;6.00;;
41709;SDS011;59402;48.396;-4.472;2023-04-28T01:20:07;16.10;;;5.35;;
41709;SDS011;59402;48.396;-4.472;2023-04-28T01:22:34;13.30;;;5.63;;
41709;SDS011;59402;48.396;-4.472;2023-04-28T01:25:00;19.30;;;5.45;;
41709;SDS011;59402;48.396;-4.472;2023-04-28T01:27:27;13.70;;;5.18;;
41709;SDS011;59402;48.396;-4.472;2023-04-28T01:29:53;14.10;;;4.60;;
41709;SDS011;59402;48.396;-4.472;2023-04-28T01:32:20;13.52;;;5.28;;
41709;SDS011;59402;48.396;-4.472;2023-04-28T01:34:46;15.75;;;5.30;;
41709;SDS011;59402;48.396;-4.472;2023-04-28T01:37:11;19.20;;;6.47;;
41709;SDS011;59402;48.396;-4.472;2023-04-28T01:39:37;22.40;;;7.80;;
41709;SDS011;59402;48.396;-4.472;2023-04-28T01:42:03;17.38;;;7.57;;
41709;SDS011;59402;48.396;-4.472;2023-04-28T01:44:29;30.08;;;9.02;;
41709;SDS011;59402;48.396;-4.472;2023-04-28T01:46:54;27.73;;;9.80;;
41709;SDS011;59402;48.396;-4.472;2023-04-28T01:49:20;38.60;;;10.77;;
41709;SDS011;59402;48.396;-4.472;2023-04-28T01:51:46;49.28;;;11.57;;
41709;SDS011;59402;48.396;-4.472;2023-04-28T01:54:12;37.20;;;10.52;;
41709;SDS011;59402;48.396;-4.472;2023-04-28T01:56:38;30.77;;;9.23;;
41709;SDS011;59402;48.396;-4.472;2023-04-28T01:59:04;48.35;;;9.93;;
41709;SDS011;59402;48.396;-4.472;2023-04-28T02:01:31;32.63;;;8.45;;
41709;SDS011;59402;48.396;-4.472;2023-04-28T02:03:57;39.30;;;9.40;;
41709;SDS011;59402;48.396;-4.472;2023-04-28T02:06:23;44.13;;;10.13;;
41709;SDS011;59402;48.396;-4.472;2023-04-28T02:08:48;24.58;;;8.35;;
41709;SDS011;59402;48.396;-4.472;2023-04-28T02:11:14;38.58;;;7.57;;
41709;SDS011;59402;48.396;-4.472;2023-04-28T02:13:40;42.25;;;8.98;;
41709;SDS011;59402;48.396;-4.472;2023-04-28T02:16:06;44.83;;;7.70;;
41709;SDS011;59402;48.396;-4.472;2023-04-28T02:18:32;24.23;;;7.50;;
41709;SDS011;59402;48.396;-4.472;2023-04-28T02:21:09;36.03;;;8.20;;
41709;SDS011;59402;48.396;-4.472;2023-04-28T02:23:36;23.77;;;7.07;;
41709;SDS011;59402;48.396;-4.472;2023-04-28T02:26:03;17.30;;;6.50;;
41709;SDS011;59402;48.396;-4.472;2023-04-28T02:28:30;37.85;;;4.97;;
41709;SDS011;59402;48.396;-4.472;2023-04-28T02:31:06;38.75;;;4.72;;
41709;SDS011;59402;48.396;-4.472;2023-04-28T02:33:32;33.37;;;4.43;;
41709;SDS011;59402;48.396;-4.472;2023-04-28T02:35:59;17.02;;;4.47;;
41709;SDS011;59402;48.396;-4.472;2023-04-28T02:38:28;12.90;;;4.07;;
41709;SDS011;59402;48.396;-4.472;2023-04-28T02:40:57;10.93;;;3.47;;
41709;SDS011;59402;48.396;-4.472;2023-04-28T02:43:25;18.63;;;5.28;;
41709;SDS011;59402;48.396;-4.472;2023-04-28T02:45:51;17.42;;;3.97;;
41709;SDS011;59402;48.396;-4.472;2023-04-28T02:48:17;14.80;;;4.22;;
41709;SDS011;59402;48.396;-4.472;2023-04-28T02:50:43;16.50;;;3.88;;
41709;SDS011;59402;48.396;-4.472;2023-04-28T02:53:12;16.63;;;4.03;;
41709;SDS011;59402;48.396;-4.472;2023-04-28T02:55:38;39.63;;;4.90;;
41709;SDS011;59402;48.396;-4.472;2023-04-28T02:58:04;22.65;;;4.43;;
41709;SDS011;59402;48.396;-4.472;2023-04-28T03:00:29;68.07;;;5.38;;
41709;SDS011;59402;48.396;-4.472;2023-04-28T03:02:55;14.35;;;4.47;;
41709;SDS011;59402;48.396;-4.472;2023-04-28T03:05:21;30.38;;;4.75;;
41709;SDS011;59402;48.396;-4.472;2023-04-28T03:07:47;10.57;;;3.95;;
41709;SDS011;59402;48.396;-4.472;2023-04-28T03:10:13;14.57;;;4.75;;
41709;SDS011;59402;48.396;-4.472;2023-04-28T03:12:39;15.00;;;3.88;;
41709;SDS011;59402;48.396;-4.472;2023-04-28T03:15:05;10.73;;;3.67;;
41709;SDS011;59402;48.396;-4.472;2023-04-28T03:17:34;6.18;;;2.53;;
41709;SDS011;59402;48.396;-4.472;2023-04-28T03:20:06;6.03;;;2.20;;
41709;SDS011;59402;48.396;-4.472;2023-04-28T03:22:33;7.60;;;2.58;;
41709;SDS011;59402;48.396;-4.472;2023-04-28T03:24:59;7.20;;;2.33;;
41709;SDS011;59402;48.396;-4.472;2023-04-28T03:27:27;7.35;;;2.20;;
41709;SDS011;59402;48.396;-4.472;2023-04-28T03:29:54;7.93;;;2.15;;
41709;SDS011;59402;48.396;-4.472;2023-04-28T03:32:20;4.65;;;1.88;;
41709;SDS011;59402;48.396;-4.472;2023-04-28T03:34:45;4.85;;;1.85;;
41709;SDS011;59402;48.396;-4.472;2023-04-28T03:37:11;5.90;;;2.50;;
41709;SDS011;59402;48.396;-4.472;2023-04-28T03:39:38;8.43;;;2.78;;
41709;SDS011;59402;48.396;-4.472;2023-04-28T03:42:04;8.48;;;2.65;;
41709;SDS011;59402;48.396;-4.472;2023-04-28T03:44:36;6.60;;;2.63;;
41709;SDS011;59402;48.396;-4.472;2023-04-28T03:47:02;9.88;;;3.13;;
41709;SDS011;59402;48.396;-4.472;2023-04-28T03:49:28;13.77;;;5.05;;
41709;SDS011;59402;48.396;-4.472;2023-04-28T03:51:54;15.65;;;4.88;;
41709;SDS011;59402;48.396;-4.472;2023-04-28T03:54:20;25.35;;;5.95;;
41709;SDS011;59402;48.396;-4.472;2023-04-28T03:56:46;26.52;;;6.53;;
41709;SDS011;59402;48.396;-4.472;2023-04-28T03:59:12;25.92;;;7.07;;
41709;SDS011;59402;48.396;-4.472;2023-04-28T04:01:38;31.20;;;7.55;;
41709;SDS011;59402;48.396;-4.472;2023-04-28T04:04:03;47.30;;;7.50;;
41709;SDS011;59402;48.396;-4.472;2023-04-28T04:06:30;32.78;;;7.13;;
41709;SDS011;59402;48.396;-4.472;2023-04-28T04:08:56;42.15;;;7.55;;
41709;SDS011;59402;48.396;-4.472;2023-04-28T04:11:22;25.30;;;7.35;;
41709;SDS011;59402;48.396;-4.472;2023-04-28T04:13:48;22.52;;;6.72;;
41709;SDS011;59402;48.396;-4.472;2023-04-28T04:16:15;42.33;;;7.85;;
41709;SDS011;59402;48.396;-4.472;2023-04-28T04:18:41;37.55;;;6.65;;
41709;SDS011;59402;48.396;-4.472;2023-04-28T04:21:29;96.22;;;8.88;;
41709;SDS011;59402;48.396;-4.472;2023-04-28T04:23:56;38.93;;;8.27;;
41709;SDS011;59402;48.396;-4.472;2023-04-28T04:26:22;47.38;;;8.60;;
41709;SDS011;59402;48.396;-4.472;2023-04-28T04:28:49;31.25;;;8.30;;
41709;SDS011;59402;48.396;-4.472;2023-04-28T04:31:15;29.20;;;7.55;;
41709;SDS011;59402;48.396;-4.472;2023-04-28T04:33:42;34.42;;;8.35;;
41709;SDS011;59402;48.396;-4.472;2023-04-28T04:36:08;62.88;;;8.07;;
41709;SDS011;59402;48.396;-4.472;2023-04-28T04:38:34;37.40;;;9.02;;
41709;SDS011;59402;48.396;-4.472;2023-04-28T04:41:09;40.50;;;8.95;;
41709;SDS011;59402;48.396;-4.472;2023-04-28T04:43:34;44.72;;;8.27;;
41709;SDS011;59402;48.396;-4.472;2023-04-28T04:46:00;59.47;;;8.80;;
41709;SDS011;59402;48.396;-4.472;2023-04-28T04:50:56;23.00;;;8.38;;
41709;SDS011;59402;48.396;-4.472;2023-04-28T04:53:22;41.08;;;9.23;;
41709;SDS011;59402;48.396;-4.472;2023-04-28T04:55:47;32.42;;;7.88;;
41709;SDS011;59402;48.396;-4.472;2023-04-28T04:58:14;53.08;;;8.63;;
41709;SDS011;59402;48.396;-4.472;2023-04-28T05:00:59;30.00;;;7.45;;
41709;SDS011;59402;48.396;-4.472;2023-04-28T05:03:25;21.83;;;6.45;;
41709;SDS011;59402;48.396;-4.472;2023-04-28T05:05:51;63.50;;;7.78;;
41709;SDS011;59402;48.396;-4.472;2023-04-28T05:08:26;28.98;;;6.22;;
41709;SDS011;59402;48.396;-4.472;2023-04-28T05:10:52;34.28;;;7.47;;
41709;SDS011;59402;48.396;-4.472;2023-04-28T05:13:18;52.50;;;7.88;;
41709;SDS011;59402;48.396;-4.472;2023-04-28T05:15:46;56.67;;;8.30;;
41709;SDS011;59402;48.396;-4.472;2023-04-28T05:18:47;58.70;;;7.75;;
41709;SDS011;59402;48.396;-4.472;2023-04-28T05:21:13;60.17;;;8.30;;
41709;SDS011;59402;48.396;-4.472;2023-04-28T05:23:38;21.15;;;6.93;;
41709;SDS011;59402;48.396;-4.472;2023-04-28T05:26:04;32.85;;;7.15;;
41709;SDS011;59402;48.396;-4.472;2023-04-28T05:28:30;19.35;;;6.03;;
41709;SDS011;59402;48.396;-4.472;2023-04-28T05:30:57;11.25;;;4.82;;
41709;SDS011;59402;48.396;-4.472;2023-04-28T05:33:23;13.32;;;4.47;;
41709;SDS011;59402;48.396;-4.472;2023-04-28T05:35:48;10.95;;;2.90;;
41709;SDS011;59402;48.396;-4.472;2023-04-28T05:38:14;10.77;;;3.80;;
41709;SDS011;59402;48.396;-4.472;2023-04-28T05:43:07;6.50;;;2.90;;
41709;SDS011;59402;48.396;-4.472;2023-04-28T05:45:33;14.60;;;3.63;;
41709;SDS011;59402;48.396;-4.472;2023-04-28T05:47:59;11.65;;;3.70;;
41709;SDS011;59402;48.396;-4.472;2023-04-28T05:50:26;22.58;;;3.70;;
41709;SDS011;59402;48.396;-4.472;2023-04-28T05:52:52;14.13;;;4.20;;
41709;SDS011;59402;48.396;-4.472;2023-04-28T05:55:18;25.48;;;3.30;;
41709;SDS011;59402;48.396;-4.472;2023-04-28T05:57:44;20.38;;;3.95;;
41709;SDS011;59402;48.396;-4.472;2023-04-28T06:00:10;20.95;;;3.88;;
41709;SDS011;59402;48.396;-4.472;2023-04-28T06:02:39;23.92;;;4.20;;
41709;SDS011;59402;48.396;-4.472;2023-04-28T06:05:05;16.52;;;4.30;;
41709;SDS011;59402;48.396;-4.472;2023-04-28T06:07:31;30.10;;;4.97;;
41709;SDS011;59402;48.396;-4.472;2023-04-28T06:09:57;25.67;;;5.65;;
41709;SDS011;59402;48.396;-4.472;2023-04-28T06:12:23;33.92;;;7.93;;
41709;SDS011;59402;48.396;-4.472;2023-04-28T06:14:49;31.10;;;7.32;;
41709;SDS011;59402;48.396;-4.472;2023-04-28T06:17:19;19.88;;;6.43;;
41709;SDS011;59402;48.396;-4.472;2023-04-28T06:19:45;26.23;;;7.18;;
41709;SDS011;59402;48.396;-4.472;2023-04-28T06:22:11;29.58;;;7.50;;
41709;SDS011;59402;48.396;-4.472;2023-04-28T06:24:37;22.45;;;7.07;;
41709;SDS011;59402;48.396;-4.472;2023-04-28T06:27:06;21.63;;;6.47;;
41709;SDS011;59402;48.396;-4.472;2023-04-28T06:29:32;25.23;;;7.15;;
41709;SDS011;59402;48.396;-4.472;2023-04-28T06:31:57;40.55;;;8.27;;
41709;SDS011;59402;48.396;-4.472;2023-04-28T06:34:24;19.65;;;5.82;;
41709;SDS011;59402;48.396;-4.472;2023-04-28T06:36:55;16.33;;;5.95;;
41709;SDS011;59402;48.396;-4.472;2023-04-28T06:39:24;15.65;;;6.03;;
41709;SDS011;59402;48.396;-4.472;2023-04-28T06:41:49;21.33;;;5.80;;
41709;SDS011;59402;48.396;-4.472;2023-04-28T06:44:15;14.95;;;4.88;;
41709;SDS011;59402;48.396;-4.472;2023-04-28T06:46:41;51.85;;;7.32;;
41709;SDS011;59402;48.396;-4.472;2023-04-28T06:49:08;39.05;;;7.97;;
41709;SDS011;59402;48.396;-4.472;2023-04-28T06:51:34;18.13;;;5.93;;
41709;SDS011;59402;48.396;-4.472;2023-04-28T06:54:00;39.85;;;8.20;;
41709;SDS011;59402;48.396;-4.472;2023-04-28T06:56:25;15.45;;;5.80;;
41709;SDS011;59402;48.396;-4.472;2023-04-28T06:58:54;16.77;;;7.10;;
41709;SDS011;59402;48.396;-4.472;2023-04-28T07:01:21;15.82;;;6.32;;
41709;SDS011;59402;48.396;-4.472;2023-04-28T07:03:47;19.10;;;6.45;;
41709;SDS011;59402;48.396;-4.472;2023-04-28T07:06:13;14.93;;;5.40;;
41709;SDS011;59402;48.396;-4.472;2023-04-28T07:08:38;10.88;;;4.65;;
41709;SDS011;59402;48.396;-4.472;2023-04-28T07:11:05;19.40;;;7.03;;
41709;SDS011;59402;48.396;-4.472;2023-04-28T07:13:31;13.98;;;5.75;;
41709;SDS011;59402;48.396;-4.472;2023-04-28T07:15:57;12.98;;;6.13;;
41709;SDS011;59402;48.396;-4.472;2023-04-28T07:18:23;11.57;;;4.95;;
41709;SDS011;59402;48.396;-4.472;2023-04-28T07:20:49;11.50;;;4.95;;
41709;SDS011;59402;48.396;-4.472;2023-04-28T07:23:15;11.15;;;4.85;;
41709;SDS011;59402;48.396;-4.472;2023-04-28T07:25:41;14.68;;;6.40;;
41709;SDS011;59402;48.396;-4.472;2023-04-28T07:28:07;11.15;;;6.18;;
41709;SDS011;59402;48.396;-4.472;2023-04-28T07:30:33;15.02;;;6.55;;
41709;SDS011;59402;48.396;-4.472;2023-04-28T07:32:59;12.57;;;6.00;;
41709;SDS011;59402;48.396;-4.472;2023-04-28T07:35:25;13.43;;;6.80;;
41709;SDS011;59402;48.396;-4.472;2023-04-28T07:37:51;12.07;;;5.70;;
41709;SDS011;59402;48.396;-4.472;2023-04-28T07:40:17;19.02;;;8.02;;
41709;SDS011;59402;48.396;-4.472;2023-04-28T07:42:43;16.85;;;8.23;;
41709;SDS011;59402;48.396;-4.472;2023-04-28T07:45:09;15.73;;;8.32;;
41709;SDS011;59402;48.396;-4.472;2023-04-28T07:47:35;18.30;;;8.80;;
41709;SDS011;59402;48.396;-4.472;2023-04-28T07:50:02;15.60;;;7.57;;
41709;SDS011;59402;48.396;-4.472;2023-04-28T07:52:30;12.70;;;6.40;;
41709;SDS011;59402;48.396;-4.472;2023-04-28T07:54:57;14.13;;;6.88;;
41709;SDS011;59402;48.396;-4.472;2023-04-28T07:57:23;14.77;;;6.78;;
41709;SDS011;59402;48.396;-4.472;2023-04-28T07:59:49;10.90;;;6.03;;
41709;SDS011;59402;48.396;-4.472;2023-04-28T08:02:15;12.00;;;6.20;;
41709;SDS011;59402;48.396;-4.472;2023-04-28T08:04:41;10.30;;;5.82;;
41709;SDS011;59402;48.396;-4.472;2023-04-28T08:07:10;9.50;;;5.20;;
41709;SDS011;59402;48.396;-4.472;2023-04-28T08:09:36;8.63;;;5.22;;
41709;SDS011;59402;48.396;-4.472;2023-04-28T08:12:01;9.15;;;4.78;;
41709;SDS011;59402;48.396;-4.472;2023-04-28T08:14:27;12.50;;;5.65;;
41709;SDS011;59402;48.396;-4.472;2023-04-28T08:16:53;8.73;;;4.80;;
41709;SDS011;59402;48.396;-4.472;2023-04-28T08:19:19;8.10;;;3.95;;
41709;SDS011;59402;48.396;-4.472;2023-04-28T08:21:45;10.10;;;6.25;;
41709;SDS011;59402;48.396;-4.472;2023-04-28T08:24:11;9.90;;;5.22;;
41709;SDS011;59402;48.396;-4.472;2023-04-28T08:26:37;6.63;;;4.13;;
41709;SDS011;59402;48.396;-4.472;2023-04-28T08:29:03;7.65;;;3.53;;
41709;SDS011;59402;48.396;-4.472;2023-04-28T08:31:29;6.05;;;3.25;;
41709;SDS011;59402;48.396;-4.472;2023-04-28T08:33:54;6.38;;;3.25;;
41709;SDS011;59402;48.396;-4.472;2023-04-28T08:36:20;4.60;;;2.63;;
41709;SDS011;59402;48.396;-4.472;2023-04-28T08:38:47;4.30;;;2.15;;
41709;SDS011;59402;48.396;-4.472;2023-04-28T08:41:16;5.60;;;2.13;;
41709;SDS011;59402;48.396;-4.472;2023-04-28T08:43:43;6.10;;;3.38;;
41709;SDS011;59402;48.396;-4.472;2023-04-28T08:46:09;5.90;;;2.97;;
41709;SDS011;59402;48.396;-4.472;2023-04-28T08:48:39;5.47;;;3.33;;
41709;SDS011;59402;48.396;-4.472;2023-04-28T08:51:13;7.70;;;4.03;;
41709;SDS011;59402;48.396;-4.472;2023-04-28T08:53:42;8.23;;;5.30;;
41709;SDS011;59402;48.396;-4.472;2023-04-28T08:56:09;9.52;;;5.32;;
41709;SDS011;59402;48.396;-4.472;2023-04-28T08:58:38;6.82;;;4.47;;
41709;SDS011;59402;48.396;-4.472;2023-04-28T09:01:04;7.18;;;4.47;;
41709;SDS011;59402;48.396;-4.472;2023-04-28T09:03:30;7.00;;;4.50;;
41709;SDS011;59402;48.396;-4.472;2023-04-28T09:05:57;10.57;;;4.70;;
41709;SDS011;59402;48.396;-4.472;2023-04-28T09:08:23;7.13;;;4.40;;
41709;SDS011;59402;48.396;-4.472;2023-04-28T09:11:04;7.93;;;4.78;;
41709;SDS011;59402;48.396;-4.472;2023-04-28T09:13:33;6.25;;;4.15;;
41709;SDS011;59402;48.396;-4.472;2023-04-28T09:15:59;7.32;;;4.00;;
41709;SDS011;59402;48.396;-4.472;2023-04-28T09:18:27;7.68;;;4.22;;
41709;SDS011;59402;48.396;-4.472;2023-04-28T09:21:02;6.63;;;4.03;;
41709;SDS011;59402;48.396;-4.472;2023-04-28T09:23:33;8.45;;;4.63;;
41709;SDS011;59402;48.396;-4.472;2023-04-28T09:26:03;7.07;;;4.35;;
41709;SDS011;59402;48.396;-4.472;2023-04-28T09:28:30;6.28;;;4.28;;
41709;SDS011;59402;48.396;-4.472;2023-04-28T09:30:56;7.70;;;4.22;;
41709;SDS011;59402;48.396;-4.472;2023-04-28T09:33:22;6.03;;;3.95;;
41709;SDS011;59402;48.396;-4.472;2023-04-28T09:35:48;5.90;;;4.25;;
41709;SDS011;59402;48.396;-4.472;2023-04-28T09:38:15;6.38;;;4.15;;
41709;SDS011;59402;48.396;-4.472;2023-04-28T09:40:57;6.57;;;4.25;;
41709;SDS011;59402;48.396;-4.472;2023-04-28T09:43:28;5.32;;;3.97;;
41709;SDS011;59402;48.396;-4.472;2023-04-28T09:45:55;8.00;;;5.00;;
41709;SDS011;59402;48.396;-4.472;2023-04-28T09:48:26;7.30;;;5.07;;
41709;SDS011;59402;48.396;-4.472;2023-04-28T09:50:53;7.78;;;4.70;;
41709;SDS011;59402;48.396;-4.472;2023-04-28T09:53:23;5.78;;;4.05;;
41709;SDS011;59402;48.396;-4.472;2023-04-28T09:55:51;7.05;;;4.43;;
41709;SDS011;59402;48.396;-4.472;2023-04-28T09:58:18;5.05;;;3.75;;
41709;SDS011;59402;48.396;-4.472;2023-04-28T10:03:14;5.32;;;3.60;;
41709;SDS011;59402;48.396;-4.472;2023-04-28T10:05:40;5.72;;;3.95;;
41709;SDS011;59402;48.396;-4.472;2023-04-28T10:08:05;6.20;;;3.75;;
41709;SDS011;59402;48.396;-4.472;2023-04-28T10:10:31;6.20;;;3.85;;
41709;SDS011;59402;48.396;-4.472;2023-04-28T10:12:58;6.60;;;3.75;;
41709;SDS011;59402;48.396;-4.472;2023-04-28T10:15:24;6.50;;;3.95;;
41709;SDS011;59402;48.396;-4.472;2023-04-28T10:17:50;8.88;;;4.28;;
41709;SDS011;59402;48.396;-4.472;2023-04-28T10:20:16;6.93;;;4.05;;
41709;SDS011;59402;48.396;-4.472;2023-04-28T10:25:31;6.85;;;4.57;;
41709;SDS011;59402;48.396;-4.472;2023-04-28T10:27:58;6.78;;;5.03;;
41709;SDS011;59402;48.396;-4.472;2023-04-28T10:30:24;6.55;;;4.40;;
41709;SDS011;59402;48.396;-4.472;2023-04-28T10:43:09;6.18;;;4.28;;
41709;SDS011;59402;48.396;-4.472;2023-04-28T10:56:08;8.20;;;3.95;;
41709;SDS011;59402;48.396;-4.472;2023-04-28T10:58:34;5.63;;;3.38;;
41709;SDS011;59402;48.396;-4.472;2023-04-28T11:06:33;5.40;;;3.60;;
41709;SDS011;59402;48.396;-4.472;2023-04-28T11:12:23;6.47;;;4.07;;
41709;SDS011;59402;48.396;-4.472;2023-04-28T11:21:58;4.97;;;3.67;;
41709;SDS011;59402;48.396;-4.472;2023-04-28T11:24:26;5.38;;;3.72;;
41709;SDS011;59402;48.396;-4.472;2023-04-28T11:26:55;4.70;;;3.50;;
41709;SDS011;59402;48.396;-4.472;2023-04-28T11:29:37;5.03;;;3.45;;
41709;SDS011;59402;48.396;-4.472;2023-04-28T11:32:04;8.27;;;4.40;;
41709;SDS011;59402;48.396;-4.472;2023-04-28T11:34:31;5.70;;;3.25;;
41709;SDS011;59402;48.396;-4.472;2023-04-28T11:36:58;5.22;;;3.30;;
41709;SDS011;59402;48.396;-4.472;2023-04-28T11:39:24;7.10;;;3.35;;
41709;SDS011;59402;48.396;-4.472;2023-04-28T11:41:54;5.70;;;3.40;;
41709;SDS011;59402;48.396;-4.472;2023-04-28T11:44:21;6.68;;;3.80;;
41709;SDS011;59402;48.396;-4.472;2023-04-28T11:46:49;6.90;;;3.22;;
41709;SDS011;59402;48.396;-4.472;2023-04-28T11:49:20;4.15;;;3.08;;
41709;SDS011;59402;48.396;-4.472;2023-04-28T11:51:46;4.63;;;3.10;;
41709;SDS011;59402;48.396;-4.472;2023-04-28T11:54:18;5.18;;;2.90;;
41709;SDS011;59402;48.396;-4.472;2023-04-28T11:56:48;4.30;;;2.80;;
41709;SDS011;59402;48.396;-4.472;2023-04-28T11:59:14;7.15;;;3.67;;
41709;SDS011;59402;48.396;-4.472;2023-04-28T12:01:44;6.45;;;3.45;;
41709;SDS011;59402;48.396;-4.472;2023-04-28T12:04:35;5.00;;;3.45;;
41709;SDS011;59402;48.396;-4.472;2023-04-28T12:09:31;6.22;;;3.05;;
41709;SDS011;59402;48.396;-4.472;2023-04-28T12:11:59;4.47;;;2.85;;
41709;SDS011;59402;48.396;-4.472;2023-04-28T12:14:27;3.83;;;3.20;;
41709;SDS011;59402;48.396;-4.472;2023-04-28T12:16:53;6.50;;;4.70;;
41709;SDS011;59402;48.396;-4.472;2023-04-28T12:19:19;6.88;;;5.15;;
41709;SDS011;59402;48.396;-4.472;2023-04-28T12:22:04;6.60;;;4.80;;
41709;SDS011;59402;48.396;-4.472;2023-04-28T12:24:30;6.25;;;5.18;;
41709;SDS011;59402;48.396;-4.472;2023-04-28T12:27:15;5.85;;;4.20;;
41709;SDS011;59402;48.396;-4.472;2023-04-28T12:29:43;7.15;;;4.72;;
41709;SDS011;59402;48.396;-4.472;2023-04-28T12:32:10;7.05;;;4.35;;
41709;SDS011;59402;48.396;-4.472;2023-04-28T12:34:37;5.60;;;4.30;;
41709;SDS011;59402;48.396;-4.472;2023-04-28T12:37:04;5.57;;;3.92;;
41709;SDS011;59402;48.396;-4.472;2023-04-28T12:39:31;6.38;;;3.70;;
41709;SDS011;59402;48.396;-4.472;2023-04-28T12:41:57;5.00;;;3.70;;
41709;SDS011;59402;48.396;-4.472;2023-04-28T12:44:24;6.55;;;3.92;;
41709;SDS011;59402;48.396;-4.472;2023-04-28T12:46:52;5.35;;;3.50;;
41709;SDS011;59402;48.396;-4.472;2023-04-28T12:49:18;4.47;;;3.33;;
41709;SDS011;59402;48.396;-4.472;2023-04-28T12:51:44;4.20;;;3.40;;
41709;SDS011;59402;48.396;-4.472;2023-04-28T12:54:10;6.20;;;3.70;;
41709;SDS011;59402;48.396;-4.472;2023-04-28T12:56:35;5.45;;;3.58;;
41709;SDS011;59402;48.396;-4.472;2023-04-28T12:59:01;5.30;;;3.53;;
41709;SDS011;59402;48.396;-4.472;2023-04-28T13:01:27;4.80;;;3.42;;
41709;SDS011;59402;48.396;-4.472;2023-04-28T13:03:53;6.80;;;4.28;;
41709;SDS011;59402;48.396;-4.472;2023-04-28T13:06:19;5.63;;;3.25;;
41709;SDS011;59402;48.396;-4.472;2023-04-28T13:08:45;5.53;;;3.55;;
41709;SDS011;59402;48.396;-4.472;2023-04-28T13:11:11;7.53;;;3.70;;
41709;SDS011;59402;48.396;-4.472;2023-04-28T13:13:37;4.47;;;3.03;;
41709;SDS011;59402;48.396;-4.472;2023-04-28T13:16:03;5.10;;;3.38;;
41709;SDS011;59402;48.396;-4.472;2023-04-28T13:18:29;5.13;;;3.80;;
41709;SDS011;59402;48.396;-4.472;2023-04-28T13:20:56;5.85;;;3.75;;
41709;SDS011;59402;48.396;-4.472;2023-04-28T13:23:22;5.65;;;3.90;;
41709;SDS011;59402;48.396;-4.472;2023-04-28T13:25:49;6.45;;;3.20;;
41709;SDS011;59402;48.396;-4.472;2023-04-28T13:28:15;5.50;;;3.10;;
41709;SDS011;59402;48.396;-4.472;2023-04-28T13:30:40;7.18;;;3.95;;
41709;SDS011;59402;48.396;-4.472;2023-04-28T13:33:06;7.63;;;4.28;;
41709;SDS011;59402;48.396;-4.472;2023-04-28T13:35:32;5.15;;;3.47;;
41709;SDS011;59402;48.396;-4.472;2023-04-28T13:37:57;5.00;;;3.22;;
41709;SDS011;59402;48.396;-4.472;2023-04-28T13:40:26;5.07;;;3.70;;
41709;SDS011;59402;48.396;-4.472;2023-04-28T13:42:53;4.78;;;3.40;;
41709;SDS011;59402;48.396;-4.472;2023-04-28T13:45:19;4.00;;;2.90;;
41709;SDS011;59402;48.396;-4.472;2023-04-28T13:47:45;5.30;;;2.78;;
41709;SDS011;59402;48.396;-4.472;2023-04-28T13:50:12;5.10;;;3.80;;
41709;SDS011;59402;48.396;-4.472;2023-04-28T13:52:38;5.13;;;2.90;;
41709;SDS011;59402;48.396;-4.472;2023-04-28T13:55:04;4.57;;;3.20;;
41709;SDS011;59402;48.396;-4.472;2023-04-28T13:57:30;3.80;;;2.47;;
41709;SDS011;59402;48.396;-4.472;2023-04-28T13:59:55;6.03;;;1.70;;
41709;SDS011;59402;48.396;-4.472;2023-04-28T14:02:21;2.75;;;1.00;;
41709;SDS011;59402;48.396;-4.472;2023-04-28T14:04:47;3.63;;;0.73;;
41709;SDS011;59402;48.396;-4.472;2023-04-28T14:07:14;3.63;;;0.80;;
41709;SDS011;59402;48.396;-4.472;2023-04-28T14:09:40;3.30;;;0.57;;
41709;SDS011;59402;48.396;-4.472;2023-04-28T14:12:06;3.03;;;0.63;;
41709;SDS011;59402;48.396;-4.472;2023-04-28T14:14:32;3.17;;;0.80;;
41709;SDS011;59402;48.396;-4.472;2023-04-28T14:16:58;2.30;;;0.60;;
41709;SDS011;59402;48.396;-4.472;2023-04-28T14:19:24;2.85;;;0.70;;
41709;SDS011;59402;48.396;-4.472;2023-04-28T14:21:51;2.53;;;0.77;;
41709;SDS011;59402;48.396;-4.472;2023-04-28T14:24:17;4.88;;;1.00;;
41709;SDS011;59402;48.396;-4.472;2023-04-28T14:26:46;2.75;;;0.70;;
41709;SDS011;59402;48.396;-4.472;2023-04-28T14:29:13;3.40;;;0.90;;
41709;SDS011;59402;48.396;-4.472;2023-04-28T14:31:39;2.00;;;0.60;;
41709;SDS011;59402;48.396;-4.472;2023-04-28T14:34:06;2.90;;;0.60;;
41709;SDS011;59402;48.396;-4.472;2023-04-28T14:36:32;3.10;;;0.65;;
41709;SDS011;59402;48.396;-4.472;2023-04-28T14:38:58;2.30;;;0.70;;
41709;SDS011;59402;48.396;-4.472;2023-04-28T14:41:24;4.00;;;0.85;;
41709;SDS011;59402;48.396;-4.472;2023-04-28T14:43:50;3.92;;;0.70;;
41709;SDS011;59402;48.396;-4.472;2023-04-28T14:46:16;6.40;;;1.00;;
41709;SDS011;59402;48.396;-4.472;2023-04-28T14:48:47;4.38;;;0.80;;
41709;SDS011;59402;48.396;-4.472;2023-04-28T14:51:14;1.88;;;0.68;;
41709;SDS011;59402;48.396;-4.472;2023-04-28T14:53:39;3.75;;;0.65;;
41709;SDS011;59402;48.396;-4.472;2023-04-28T14:56:06;4.18;;;0.90;;
41709;SDS011;59402;48.396;-4.472;2023-04-28T14:58:33;3.95;;;0.75;;
41709;SDS011;59402;48.396;-4.472;2023-04-28T15:00:59;3.67;;;0.70;;
41709;SDS011;59402;48.396;-4.472;2023-04-28T15:03:25;3.08;;;0.70;;
41709;SDS011;59402;48.396;-4.472;2023-04-28T15:05:51;4.05;;;0.70;;
41709;SDS011;59402;48.396;-4.472;2023-04-28T15:08:17;2.20;;;0.77;;
41709;SDS011;59402;48.396;-4.472;2023-04-28T15:10:43;3.05;;;0.50;;
41709;SDS011;59402;48.396;-4.472;2023-04-28T15:13:09;2.65;;;0.70;;
41709;SDS011;59402;48.396;-4.472;2023-04-28T15:15:35;2.63;;;0.70;;